createdAt,value
2022-12-25T12:28:55.817Z,12.00
2022-12-25T12:29:56.258Z,12.00
2022-12-25T12:30:56.994Z,12.00
2022-12-25T12:31:57.580Z,12.00
2022-12-25T12:32:57.693Z,12.00
2022-12-25T12:33:58.047Z,12.01
2022-12-25T12:34:58.350Z,12.01
2022-12-25T12:35:59.266Z,12.02
2022-12-25T12:36:59.751Z,12.02
2022-12-25T12:37:59.960Z,12.03
2022-12-25T12:39:00.702Z,12.04
2022-12-25T12:40:01.265Z,12.05
2022-12-25T12:41:01.722Z,12.05
2022-12-25T12:42:01.830Z,12.06
2022-12-25T12:43:02.401Z,12.07
2022-12-25T12:44:02.702Z,12.08
2022-12-25T12:45:02.946Z,12.08
2022-12-25T12:46:03.102Z,12.09
2022-12-25T12:47:03.123Z,12.09
2022-12-25T12:48:03.407Z,12.10
2022-12-25T12:49:03.736Z,12.10
2022-12-25T12:50:04.269Z,12.11
2022-12-25T12:51:04.829Z,12.11
2022-12-25T12:52:05.274Z,12.11
2022-12-25T12:53:05.460Z,12.12
2022-12-25T12:54:05.960Z,12.12
2022-12-25T12:55:06.596Z,12.12
2022-12-25T12:56:06.898Z,12.12
2022-12-25T12:57:06.927Z,12.12
2022-12-25T12:58:07.302Z,12.12
2022-12-25T13:45:06.418Z,12.02
2022-12-25T13:46:06.968Z,12.02
2022-12-25T13:47:07.519Z,12.02
2022-12-25T13:48:08.270Z,12.02
2022-12-25T13:49:08.519Z,12.02
2022-12-25T13:50:09.455Z,12.03
2022-12-25T13:51:10.467Z,12.03
2022-12-25T13:52:11.256Z,12.03
2022-12-25T13:53:11.405Z,12.03
2022-12-25T13:54:12.287Z,12.04
2022-12-25T13:55:13.141Z,12.04
2022-12-25T13:56:14.063Z,12.05
2022-12-25T13:57:14.927Z,12.05
2022-12-25T13:58:15.756Z,12.06
2022-12-25T13:59:17.318Z,12.06
2022-12-25T14:00:16.553Z,12.06
2022-12-25T14:01:17.191Z,12.07
2022-12-25T14:02:18.097Z,12.07
2022-12-25T14:03:19.045Z,12.07
2022-12-25T14:04:19.864Z,12.07
2022-12-25T14:05:20.773Z,12.07
2022-12-25T14:06:21.337Z,12.07
2022-12-25T14:07:22.015Z,12.07
2022-12-25T14:08:22.380Z,12.06
2022-12-25T14:09:23.354Z,12.06
2022-12-25T14:10:23.918Z,12.05
2022-12-25T14:11:24.420Z,12.04
2022-12-25T14:12:25.021Z,12.04
2022-12-25T14:12:41.163Z,11.90
2022-12-25T14:13:41.857Z,11.90
2022-12-25T14:14:42.326Z,11.90
2022-12-25T14:15:43.228Z,11.89
2022-12-25T14:16:43.636Z,11.89
2022-12-25T14:17:44.355Z,11.88
2022-12-25T14:18:45.021Z,11.88
2022-12-25T14:25:47.272Z,11.62
2022-12-25T14:26:47.619Z,11.62
2022-12-25T14:27:48.238Z,11.62
2022-12-25T14:28:49.138Z,11.62
2022-12-25T14:29:49.884Z,11.62
2022-12-25T14:30:50.920Z,11.62
2022-12-25T14:31:51.424Z,11.62
2022-12-25T14:32:52.017Z,11.62
2022-12-25T14:33:52.945Z,11.62
2022-12-25T14:34:53.565Z,11.62
2022-12-25T14:35:54.084Z,11.62
2022-12-25T14:36:54.120Z,11.62
2022-12-25T14:37:55.031Z,11.62
2022-12-25T14:38:55.886Z,11.62
2022-12-25T14:39:56.527Z,11.62
2022-12-25T14:40:57.206Z,11.61
2022-12-25T14:41:58.070Z,11.61
2022-12-25T14:42:58.389Z,11.60
2022-12-25T14:43:59.115Z,11.60
2022-12-25T14:44:59.785Z,11.59
2022-12-25T14:46:00.840Z,11.59
2022-12-25T14:47:01.813Z,11.58
2022-12-25T14:48:02.289Z,11.58
2022-12-25T14:49:02.766Z,11.58
2022-12-25T14:50:03.266Z,11.58
2022-12-25T14:51:03.928Z,11.58
2022-12-25T14:52:04.662Z,11.58
2022-12-25T14:53:04.811Z,11.58
2022-12-25T14:54:04.983Z,11.58
2022-12-25T14:55:05.920Z,11.57
2022-12-25T14:55:20.989Z,11.53
2022-12-25T15:03:49.846Z,11.41
2022-12-25T15:04:50.017Z,11.41
2022-12-25T15:05:50.814Z,11.41
2022-12-25T15:06:51.274Z,11.40
2022-12-25T15:07:51.764Z,11.40
2022-12-25T15:08:52.416Z,11.40
2022-12-25T15:10:18.504Z,11.40
2022-12-25T15:11:02.878Z,11.39
2022-12-25T15:11:54.763Z,11.38
2022-12-25T15:12:55.571Z,11.38
2022-12-25T15:13:56.351Z,11.37
2022-12-25T15:14:56.900Z,11.37
2022-12-25T15:15:57.844Z,11.36
2022-12-25T15:16:58.480Z,11.35
2022-12-25T15:17:59.067Z,11.35
2022-12-25T15:18:59.805Z,11.34
2022-12-25T15:20:00.711Z,11.33
2022-12-25T15:21:01.309Z,11.32
2022-12-25T15:22:02.054Z,11.32
2022-12-25T15:23:19.345Z,11.31
2022-12-25T15:24:03.199Z,11.30
2022-12-25T15:25:03.171Z,11.30
2022-12-25T15:26:03.929Z,11.29
2022-12-25T15:27:04.430Z,11.28
2022-12-25T15:28:08.026Z,11.28
2022-12-25T15:29:05.630Z,11.27
2022-12-25T15:30:10.616Z,11.26
2022-12-25T15:31:07.164Z,11.25
2022-12-25T15:32:07.928Z,11.24
2022-12-25T15:33:08.847Z,11.23
2022-12-25T15:34:09.708Z,11.22
2022-12-25T15:35:10.506Z,11.21
2022-12-25T15:35:26.619Z,11.02
2022-12-25T15:36:27.284Z,11.01
2022-12-25T15:37:27.306Z,11.01
2022-12-25T15:38:27.847Z,11.01
2022-12-25T15:39:28.520Z,11.01
2022-12-25T15:40:29.271Z,11.01
2022-12-25T15:41:29.853Z,11.00
2022-12-25T15:42:30.842Z,10.99
2022-12-25T15:43:45.448Z,10.99
2022-12-25T15:44:31.688Z,10.98
2022-12-25T15:45:32.285Z,10.97
2022-12-25T15:46:32.936Z,10.96
2022-12-25T15:47:33.305Z,10.96
2022-12-25T15:48:33.968Z,10.95
2022-12-25T15:49:34.582Z,10.94
2022-12-25T15:50:35.122Z,10.93
2022-12-25T15:51:35.601Z,10.92
2022-12-25T15:52:36.218Z,10.90
2022-12-25T15:53:36.749Z,10.89
2022-12-25T15:54:37.481Z,10.87
2022-12-25T15:55:37.915Z,10.86
2022-12-25T15:56:38.742Z,10.84
2022-12-25T15:57:39.336Z,10.83
2022-12-25T15:58:39.832Z,10.81
2022-12-25T15:59:40.756Z,10.79
2022-12-25T16:00:41.417Z,10.78
2022-12-25T16:01:42.058Z,10.76
2022-12-25T16:02:42.752Z,10.75
2022-12-25T16:03:43.131Z,10.73
2022-12-25T16:04:43.927Z,10.72
2022-12-25T16:04:59.529Z,10.47
2022-12-25T16:06:00.313Z,10.47
2022-12-25T16:07:00.775Z,10.47
2022-12-25T16:08:01.321Z,10.46
2022-12-25T16:09:02.176Z,10.46
2022-12-25T16:10:02.823Z,10.45
2022-12-25T16:11:03.685Z,10.45
2022-12-25T16:12:04.216Z,10.44
2022-12-25T16:13:05.204Z,10.44
2022-12-25T16:14:05.835Z,10.44
2022-12-25T16:15:06.580Z,10.43
2022-12-25T16:16:07.343Z,10.42
2022-12-25T16:17:07.967Z,10.42
2022-12-25T16:18:08.205Z,10.41
2022-12-25T16:19:08.839Z,10.41
2022-12-25T16:20:09.735Z,10.40
2022-12-25T16:21:09.968Z,10.40
2022-12-25T16:30:50.604Z,10.25
2022-12-25T16:31:51.488Z,10.25
2022-12-25T16:32:51.913Z,10.25
2022-12-25T16:33:52.359Z,10.25
2022-12-25T16:34:52.940Z,10.24
2022-12-25T16:35:53.704Z,10.24
2022-12-25T16:36:54.433Z,10.24
2022-12-25T16:37:55.240Z,10.24
2022-12-25T16:38:55.591Z,10.24
2022-12-25T16:39:56.541Z,10.23
2022-12-25T16:40:57.289Z,10.23
2022-12-25T16:41:57.524Z,10.23
2022-12-25T16:42:57.632Z,10.23
2022-12-25T16:43:57.883Z,10.23
2022-12-25T16:44:58.279Z,10.23
2022-12-25T16:45:58.938Z,10.23
2022-12-25T16:46:59.793Z,10.23
2022-12-25T16:54:57.575Z,10.22
2022-12-25T16:55:57.852Z,10.22
2022-12-25T16:56:58.487Z,10.21
2022-12-25T16:57:59.205Z,10.21
2022-12-25T16:58:59.286Z,10.21
2022-12-25T17:00:00.268Z,10.21
2022-12-25T17:01:00.650Z,10.21
2022-12-25T17:02:00.895Z,10.22
2022-12-25T17:03:01.567Z,10.22
2022-12-25T17:04:01.947Z,10.23
2022-12-25T17:05:02.332Z,10.24
2022-12-25T17:06:02.979Z,10.24
2022-12-25T17:07:03.761Z,10.25
2022-12-25T17:08:04.629Z,10.26
2022-12-25T17:09:05.405Z,10.26
2022-12-25T17:10:05.855Z,10.26
2022-12-25T17:11:06.674Z,10.27
2022-12-25T17:12:07.530Z,10.27
2022-12-25T17:13:07.806Z,10.27
2022-12-25T17:14:08.553Z,10.28
2022-12-25T17:15:08.611Z,10.28
2022-12-25T17:16:08.785Z,10.29
2022-12-25T17:17:09.557Z,10.29
2022-12-25T17:18:09.726Z,10.29
2022-12-25T17:19:10.571Z,10.30
2022-12-25T17:20:11.533Z,10.30
2022-12-25T17:21:12.340Z,10.31
2022-12-25T17:22:12.391Z,10.31
2022-12-25T17:23:13.210Z,10.31
2022-12-25T17:24:13.962Z,10.31
2022-12-25T17:24:31.147Z,10.36
2022-12-25T17:25:31.201Z,10.35
2022-12-25T17:26:31.428Z,10.35
2022-12-25T17:27:31.523Z,10.35
2022-12-25T17:28:31.561Z,10.35
2022-12-25T17:29:32.381Z,10.35
2022-12-25T17:30:33.310Z,10.35
2022-12-25T17:31:33.549Z,10.35
2022-12-25T17:32:34.210Z,10.35
2022-12-25T17:33:34.327Z,10.35
2022-12-25T17:34:35.102Z,10.35
2022-12-25T17:35:35.793Z,10.35
2022-12-25T17:36:35.961Z,10.36
2022-12-25T17:37:36.262Z,10.36
2022-12-25T17:38:36.490Z,10.36
2022-12-25T17:39:36.753Z,10.36
2022-12-25T17:40:36.767Z,10.36
2022-12-25T17:41:37.679Z,10.36
2022-12-25T17:42:38.458Z,10.36
2022-12-25T17:43:39.136Z,10.36
2022-12-25T17:44:39.506Z,10.36
2022-12-25T17:45:40.196Z,10.36
2022-12-25T17:46:41.005Z,10.36
2022-12-25T17:47:41.677Z,10.36
2022-12-25T17:48:42.542Z,10.35
2022-12-25T17:49:43.333Z,10.35
2022-12-25T17:50:44.276Z,10.34
2022-12-25T17:51:44.947Z,10.34
2022-12-25T17:52:45.914Z,10.33
2022-12-25T17:53:46.372Z,10.33
2022-12-25T17:54:03.537Z,10.25
2022-12-25T17:55:04.455Z,10.25
2022-12-25T17:56:04.587Z,10.25
2022-12-25T17:57:05.410Z,10.25
2022-12-25T17:58:06.138Z,10.25
2022-12-25T17:59:07.025Z,10.25
2022-12-25T18:00:07.524Z,10.24
2022-12-25T18:01:08.325Z,10.24
2022-12-25T18:02:09.236Z,10.24
2022-12-25T18:03:11.965Z,10.24
2022-12-25T18:04:09.619Z,10.24
2022-12-25T18:05:10.446Z,10.24
2022-12-25T18:06:10.882Z,10.24
2022-12-25T18:07:10.955Z,10.23
2022-12-25T18:08:11.171Z,10.23
2022-12-25T18:09:11.559Z,10.23
2022-12-25T18:10:12.387Z,10.23
2022-12-25T18:11:12.494Z,10.23
2022-12-25T18:12:12.720Z,10.23
2022-12-25T18:13:12.911Z,10.23
2022-12-25T18:14:13.688Z,10.23
2022-12-25T18:15:13.887Z,10.23
2022-12-25T18:16:14.227Z,10.23
2022-12-25T18:17:14.384Z,10.23
2022-12-25T18:18:15.357Z,10.22
2022-12-25T18:19:16.204Z,10.22
2022-12-25T18:20:17.164Z,10.22
2022-12-25T18:21:17.205Z,10.22
2022-12-25T18:22:17.263Z,10.22
2022-12-25T18:22:33.928Z,10.24
2022-12-25T18:23:34.634Z,10.24
2022-12-25T18:24:35.417Z,10.23
2022-12-25T18:25:36.314Z,10.23
2022-12-25T18:26:37.277Z,10.23
2022-12-25T18:27:38.072Z,10.23
2022-12-25T18:28:38.885Z,10.23
2022-12-25T18:29:39.785Z,10.23
2022-12-25T18:30:40.668Z,10.23
2022-12-25T18:31:41.412Z,10.22
2022-12-25T18:32:41.467Z,10.22
2022-12-25T18:33:42.341Z,10.22
2022-12-25T18:34:43.190Z,10.21
2022-12-25T18:35:44.249Z,10.21
2022-12-25T18:36:45.151Z,10.20
2022-12-25T18:37:45.208Z,10.19
2022-12-25T18:38:46.059Z,10.19
2022-12-25T18:39:50.012Z,10.18
2022-12-25T18:40:47.160Z,10.18
2022-12-25T18:41:47.339Z,10.17
2022-12-25T18:42:48.161Z,10.16
2022-12-25T18:43:52.986Z,10.16
2022-12-25T18:44:49.840Z,10.15
2022-12-25T18:45:50.821Z,10.14
2022-12-25T18:46:50.716Z,10.13
2022-12-25T18:47:50.713Z,10.13
2022-12-25T18:48:51.595Z,10.12
2022-12-25T18:49:51.598Z,10.11
2022-12-25T18:50:52.573Z,10.11
2022-12-25T18:51:53.490Z,10.11
2022-12-25T18:52:54.316Z,10.10
2022-12-25T18:53:55.261Z,10.10
2022-12-25T18:54:09.914Z,10.00
2022-12-25T18:55:10.120Z,10.00
2022-12-25T18:56:10.205Z,10.00
2022-12-25T18:57:11.127Z,9.99
2022-12-25T18:58:12.046Z,9.99
2022-12-25T18:59:12.878Z,9.98
2022-12-25T19:00:13.712Z,9.97
2022-12-25T19:01:13.894Z,9.96
2022-12-25T19:02:14.008Z,9.95
2022-12-25T19:03:14.545Z,9.94
2022-12-25T19:12:50.946Z,9.77
2022-12-25T19:13:50.954Z,9.77
2022-12-25T19:14:51.623Z,9.77
2022-12-25T19:15:52.548Z,9.77
2022-12-25T19:16:53.069Z,9.76
2022-12-25T19:17:53.699Z,9.76
2022-12-25T19:18:54.352Z,9.76
2022-12-25T19:19:55.155Z,9.76
2022-12-25T19:20:55.884Z,9.76
2022-12-25T19:21:56.629Z,9.75
2022-12-25T19:22:57.355Z,9.75
2022-12-25T19:23:58.243Z,9.75
2022-12-25T19:24:59.198Z,9.75
2022-12-25T19:25:59.944Z,9.75
2022-12-25T19:27:00.807Z,9.75
2022-12-25T19:28:01.744Z,9.75
2022-12-25T19:29:02.010Z,9.74
2022-12-25T19:30:02.910Z,9.74
2022-12-25T19:31:02.932Z,9.74
2022-12-25T19:32:03.367Z,9.73
2022-12-25T19:33:03.569Z,9.72
2022-12-25T19:34:03.921Z,9.72
2022-12-25T19:35:04.256Z,9.72
2022-12-25T19:36:05.126Z,9.72
2022-12-25T19:37:05.350Z,9.72
2022-12-25T19:38:05.476Z,9.72
2022-12-25T19:39:05.978Z,9.73
2022-12-25T19:40:06.929Z,9.73
2022-12-25T19:41:07.212Z,9.74
2022-12-25T19:42:07.867Z,9.74
2022-12-25T19:43:08.402Z,9.75
2022-12-25T19:43:24.033Z,9.87
2022-12-25T19:44:24.674Z,9.87
2022-12-25T19:45:25.087Z,9.87
2022-12-25T19:46:25.657Z,9.87
2022-12-25T19:47:25.746Z,9.87
2022-12-25T19:48:25.825Z,9.86
2022-12-25T19:49:26.403Z,9.85
2022-12-25T19:50:26.477Z,9.85
2022-12-25T19:51:26.604Z,9.85
2022-12-25T19:52:26.619Z,9.85
2022-12-25T19:53:26.761Z,9.84
2022-12-25T19:54:26.846Z,9.84
2022-12-25T19:55:27.864Z,9.84
2022-12-25T19:56:28.311Z,9.84
2022-12-25T19:57:28.356Z,9.84
2022-12-25T19:58:28.495Z,9.84
2022-12-25T19:59:28.947Z,9.84
2022-12-25T20:00:29.138Z,9.84
2022-12-25T20:01:29.551Z,9.84
2022-12-25T20:02:29.446Z,9.84
2022-12-25T20:03:29.628Z,9.84
2022-12-25T20:04:30.215Z,9.84
2022-12-25T20:05:30.708Z,9.83
2022-12-25T20:06:31.058Z,9.83
2022-12-25T20:07:31.138Z,9.83
2022-12-25T20:08:31.232Z,9.83
2022-12-25T20:09:31.360Z,9.84
2022-12-25T20:10:32.349Z,9.84
2022-12-25T20:11:32.582Z,9.85
2022-12-25T20:12:33.196Z,9.85
2022-12-25T20:13:34.109Z,9.86
2022-12-25T20:14:34.569Z,9.86
2022-12-25T20:15:35.486Z,9.86
2022-12-25T20:18:30.941Z,9.85
2022-12-25T20:19:30.949Z,9.85
2022-12-25T20:20:31.781Z,9.85
2022-12-25T20:21:32.052Z,9.85
2022-12-25T20:22:32.967Z,9.85
2022-12-25T20:23:33.174Z,9.85
2022-12-25T20:24:34.063Z,9.86
2022-12-25T20:25:34.918Z,9.87
2022-12-25T20:26:35.092Z,9.87
2022-12-25T20:27:35.138Z,9.88
2022-12-25T20:28:35.408Z,9.89
2022-12-25T20:29:35.603Z,9.89
2022-12-25T20:30:35.761Z,9.90
2022-12-25T20:31:35.914Z,9.91
2022-12-25T20:32:35.813Z,9.92
2022-12-25T20:33:36.469Z,9.93
2022-12-25T20:34:36.965Z,9.94
2022-12-25T20:35:37.697Z,9.95
2022-12-25T20:36:38.488Z,9.96
2022-12-25T20:37:39.018Z,9.97
2022-12-25T20:38:39.286Z,9.99
2022-12-25T20:39:40.095Z,10.02
2022-12-25T20:45:58.197Z,10.53
2022-12-25T20:46:58.044Z,10.53
2022-12-25T20:47:58.092Z,10.53
2022-12-25T20:48:58.985Z,10.53
2022-12-25T20:49:59.828Z,10.53
2022-12-25T20:51:00.780Z,10.53
2022-12-25T20:52:05.371Z,10.53
2022-12-25T20:53:01.733Z,10.53
2022-12-25T20:54:02.559Z,10.53
2022-12-25T20:55:03.457Z,10.53
2022-12-25T20:56:03.750Z,10.54
2022-12-25T20:57:03.758Z,10.54
2022-12-25T21:06:44.381Z,10.68
2022-12-25T21:07:44.755Z,10.68
2022-12-25T21:08:45.352Z,10.68
2022-12-25T21:09:46.099Z,10.68
2022-12-25T21:10:46.653Z,10.69
2022-12-25T21:11:47.295Z,10.69
2022-12-25T21:12:47.938Z,10.69
2022-12-25T21:13:48.448Z,10.69
2022-12-25T21:14:48.506Z,10.69
2022-12-25T21:15:49.015Z,10.70
2022-12-25T21:16:49.739Z,10.71
2022-12-25T21:17:49.727Z,10.71
2022-12-25T21:18:49.847Z,10.71
2022-12-25T21:19:50.411Z,10.71
2022-12-25T21:20:51.083Z,10.71
2022-12-25T21:21:51.706Z,10.71
2022-12-25T21:22:52.490Z,10.71
2022-12-25T21:23:53.354Z,10.71
2022-12-25T21:24:54.047Z,10.71
2022-12-25T21:25:54.732Z,10.70
2022-12-25T21:26:55.243Z,10.70
2022-12-25T21:27:55.520Z,10.70
2022-12-25T21:28:56.537Z,10.70
2022-12-25T21:29:56.750Z,10.70
2022-12-25T21:30:57.221Z,10.71
2022-12-25T21:31:57.915Z,10.71
2022-12-25T21:32:58.760Z,10.71
2022-12-25T21:33:59.418Z,10.73
2022-12-25T21:34:59.721Z,10.74
2022-12-25T21:36:00.437Z,10.77
2022-12-25T21:37:01.127Z,10.79
2022-12-25T21:37:46.080Z,11.14
2022-12-25T21:38:46.685Z,11.14
2022-12-25T21:39:47.238Z,11.14
2022-12-25T21:40:47.872Z,11.15
2022-12-25T21:41:48.808Z,11.15
2022-12-25T21:42:48.950Z,11.16
2022-12-25T21:43:49.657Z,11.16
2022-12-25T21:44:49.735Z,11.16
2022-12-25T21:45:50.632Z,11.16
2022-12-25T21:46:50.756Z,11.16
2022-12-25T21:48:01.621Z,11.17
2022-12-25T21:48:51.922Z,11.19
2022-12-25T21:49:52.594Z,11.20
2022-12-25T21:50:53.345Z,11.22
2022-12-25T21:51:53.979Z,11.24
2022-12-25T21:52:54.493Z,11.26
2022-12-25T21:53:55.047Z,11.29
2022-12-25T21:54:55.653Z,11.32
2022-12-25T21:55:56.475Z,11.35
2022-12-25T21:56:56.614Z,11.38
2022-12-25T21:57:57.357Z,11.41
2022-12-25T21:58:58.308Z,11.44
2022-12-25T21:59:59.108Z,11.46
2022-12-25T22:00:59.738Z,11.48
2022-12-25T22:02:00.640Z,11.52
2022-12-25T22:03:01.577Z,11.54
2022-12-25T22:04:02.186Z,11.57
2022-12-25T22:05:02.346Z,11.59
2022-12-25T22:06:02.404Z,11.62
2022-12-25T22:33:35.279Z,11.86
2022-12-25T22:34:36.003Z,11.86
2022-12-25T22:35:36.873Z,11.86
2022-12-25T22:36:37.646Z,11.86
2022-12-25T22:37:38.494Z,11.86
2022-12-25T22:38:39.176Z,11.85
2022-12-25T22:39:40.042Z,11.85
2022-12-25T22:43:02.146Z,11.67
2022-12-25T22:44:16.543Z,11.67
2022-12-25T22:44:55.939Z,11.67
2022-12-25T22:46:01.329Z,11.67
2022-12-25T22:46:56.194Z,11.68
2022-12-25T22:47:56.954Z,11.68
2022-12-25T22:48:55.560Z,11.68
2022-12-25T22:52:16.449Z,11.68
2022-12-25T22:53:16.867Z,11.68
2022-12-25T22:54:14.479Z,11.69
2022-12-25T22:55:15.525Z,11.70
